Time;durP1;ratioP1;P1;durP2;ratioP2;P2;SDS_P1;SDS_P2;PMS_P1;PMS_P2;Temp;Humidity;BMP_temperature;BMP_pressure;BME280_temperature;BME280_humidity;BME280_pressure;Samples;Min_cycle;Max_cycle;Signal;HPM_P1;HPM_P2
2021/10/30 00:01:11;;;;;;;73.85;25.38;;;9.20;85.00;;;;;;5055538;28;20029;-47
2021/10/30 00:03:37;;;;;;;69.40;25.30;;;9.20;85.20;;;;;;5061450;28;20021;-46
2021/10/30 00:06:03;;;;;;;67.93;26.08;;;9.20;85.40;;;;;;5062513;28;20294;-36
2021/10/30 00:08:29;;;;;;;97.18;38.47;;;9.20;85.50;;;;;;5061584;28;20074;-47
2021/10/30 00:10:56;;;;;;;101.20;38.33;;;9.20;85.60;;;;;;5062191;28;20082;-37
2021/10/30 00:13:22;;;;;;;90.32;34.50;;;9.20;85.50;;;;;;5061854;28;20033;-46
2021/10/30 00:15:48;;;;;;;88.65;38.97;;;9.20;85.60;;;;;;5062484;28;20107;-39
2021/10/30 00:18:14;;;;;;;103.28;37.05;;;9.20;85.70;;;;;;5061785;28;20067;-38
2021/10/30 00:20:39;;;;;;;93.55;38.72;;;9.30;85.80;;;;;;5062428;28;20036;-38
2021/10/30 00:23:05;;;;;;;90.20;41.25;;;9.20;85.60;;;;;;5061878;28;20452;-36
2021/10/30 00:25:31;;;;;;;120.50;52.30;;;9.20;85.50;;;;;;5062455;28;20108;-46
2021/10/30 00:27:56;;;;;;;100.82;44.65;;;9.20;85.70;;;;;;5061665;28;20032;-45
2021/10/30 00:30:22;;;;;;;103.13;44.17;;;9.20;85.90;;;;;;5062290;28;20032;-46
2021/10/30 00:32:48;;;;;;;87.03;36.33;;;9.20;86.00;;;;;;5061995;28;20036;-37
2021/10/30 00:35:13;;;;;;;93.10;36.75;;;9.30;86.20;;;;;;5061232;28;20107;-45
2021/10/30 00:37:39;;;;;;;85.18;31.25;;;9.30;86.20;;;;;;5061942;28;20062;-46
2021/10/30 00:40:06;;;;;;;66.28;24.35;;;9.30;86.30;;;;;;5062222;28;20421;-37
2021/10/30 00:42:32;;;;;;;57.40;21.90;;;9.30;86.40;;;;;;5061580;28;20083;-36
2021/10/30 00:44:57;;;;;;;64.57;24.23;;;9.30;86.40;;;;;;5062159;28;20029;-47
2021/10/30 00:47:23;;;;;;;71.53;26.30;;;9.30;86.50;;;;;;5061905;28;20402;-39
2021/10/30 00:49:49;;;;;;;84.22;27.23;;;9.30;86.60;;;;;;5060991;28;20033;-36
2021/10/30 00:52:15;;;;;;;62.65;25.25;;;9.30;86.70;;;;;;5061892;28;20041;-47
2021/10/30 00:54:44;;;;;;;77.97;29.83;;;9.30;86.50;;;;;;5061889;28;20438;-37
2021/10/30 00:57:11;;;;;;;79.10;27.98;;;9.40;86.60;;;;;;5061717;28;20028;-47
2021/10/30 00:59:36;;;;;;;65.70;26.83;;;9.40;86.70;;;;;;5061992;28;20033;-46
2021/10/30 01:02:03;;;;;;;75.97;29.45;;;9.40;86.60;;;;;;5061827;28;20021;-46
2021/10/30 01:04:30;;;;;;;74.15;29.00;;;9.40;86.50;;;;;;5061884;28;20103;-38
2021/10/30 01:06:58;;;;;;;64.63;30.00;;;9.40;86.60;;;;;;5061538;28;20082;-46
2021/10/30 01:09:24;;;;;;;73.10;32.20;;;9.40;86.70;;;;;;5061955;28;20317;-46
2021/10/30 01:11:52;;;;;;;94.50;36.63;;;9.40;86.80;;;;;;5061419;28;20171;-46
2021/10/30 01:14:19;;;;;;;102.85;41.17;;;9.50;86.90;;;;;;5059244;28;20309;-35
2021/10/30 01:16:59;;;;;;;118.65;46.78;;;9.50;86.30;;;;;;5058137;28;20025;-36
2021/10/30 01:19:26;;;;;;;100.72;46.25;;;9.50;86.00;;;;;;5058468;28;20329;-37
2021/10/30 01:21:52;;;;;;;63.28;28.50;;;9.50;86.00;;;;;;5058435;28;20039;-38
2021/10/30 01:24:17;;;;;;;46.72;23.92;;;9.50;85.60;;;;;;5058483;28;20309;-38
2021/10/30 01:26:43;;;;;;;46.28;21.27;;;9.50;85.50;;;;;;5057906;28;20028;-47
2021/10/30 01:29:09;;;;;;;35.70;18.10;;;9.50;85.60;;;;;;5058554;28;20049;-47
2021/10/30 01:31:34;;;;;;;33.00;18.55;;;9.50;85.60;;;;;;5058093;28;20178;-47
2021/10/30 01:34:05;;;;;;;31.85;16.58;;;9.50;85.60;;;;;;5058157;28;20025;-47
2021/10/30 01:36:34;;;;;;;42.45;22.67;;;9.50;85.60;;;;;;5057828;28;20057;-40
2021/10/30 01:39:02;;;;;;;36.83;21.60;;;9.60;85.80;;;;;;5058209;28;20037;-47
2021/10/30 01:41:28;;;;;;;31.63;17.33;;;9.60;85.80;;;;;;5057621;28;20033;-47
2021/10/30 01:43:57;;;;;;;28.70;16.85;;;9.60;85.50;;;;;;5058131;28;20350;-47
2021/10/30 01:46:24;;;;;;;36.88;19.85;;;9.60;85.40;;;;;;5057578;28;20033;-38
2021/10/30 01:48:50;;;;;;;34.22;18.08;;;9.50;85.20;;;;;;5058018;28;20057;-38
2021/10/30 01:51:16;;;;;;;33.83;19.05;;;9.60;85.20;;;;;;5057939;28;20147;-38
2021/10/30 01:53:44;;;;;;;35.65;19.10;;;9.60;85.30;;;;;;5057731;28;20320;-47
2021/10/30 01:56:11;;;;;;;36.38;17.92;;;9.60;85.50;;;;;;5057514;28;20056;-36
2021/10/30 01:58:37;;;;;;;37.75;20.48;;;9.60;85.50;;;;;;5057287;28;20037;-40
2021/10/30 02:01:04;;;;;;;63.47;27.25;;;9.60;85.60;;;;;;5057827;28;20040;-46
2021/10/30 02:03:31;;;;;;;85.60;33.40;;;9.60;85.10;;;;;;5039471;28;20413;-38
2021/10/30 02:05:57;;;;;;;88.05;35.90;;;9.60;84.80;;;;;;5057507;28;20090;-37
2021/10/30 02:08:24;;;;;;;91.10;34.08;;;9.50;84.60;;;;;;5057130;28;20028;-47
2021/10/30 02:10:50;;;;;;;76.53;29.67;;;9.50;84.70;;;;;;5057482;28;20417;-36
2021/10/30 02:13:16;;;;;;;68.97;29.38;;;9.50;84.60;;;;;;5057508;28;20033;-48
2021/10/30 02:15:41;;;;;;;77.13;31.90;;;9.50;84.50;;;;;;5057815;28;20044;-39
2021/10/30 02:18:08;;;;;;;82.53;33.28;;;9.40;84.50;;;;;;5057091;28;20033;-47
2021/10/30 02:20:34;;;;;;;106.22;41.28;;;9.40;84.50;;;;;;5057686;28;20079;-47
2021/10/30 02:23:00;;;;;;;106.55;41.83;;;9.40;84.60;;;;;;5057020;28;20033;-47
2021/10/30 02:25:26;;;;;;;106.00;41.63;;;9.30;84.70;;;;;;5056279;28;20108;-42
2021/10/30 02:27:52;;;;;;;111.32;43.85;;;9.30;84.90;;;;;;5056918;28;20033;-42
2021/10/30 02:30:19;;;;;;;98.28;37.03;;;9.30;84.70;;;;;;5057320;28;20071;-47
2021/10/30 02:32:45;;;;;;;86.95;35.40;;;9.30;84.70;;;;;;5057089;28;20037;-47
2021/10/30 02:35:12;;;;;;;104.93;41.83;;;9.30;84.90;;;;;;5057383;28;20306;-47
2021/10/30 02:37:38;;;;;;;105.45;42.78;;;9.30;84.90;;;;;;5056914;28;20451;-47
2021/10/30 02:40:05;;;;;;;124.97;51.40;;;9.30;85.50;;;;;;5056791;28;20025;-38
2021/10/30 02:42:31;;;;;;;149.18;60.85;;;9.30;84.80;;;;;;5056469;28;20119;-47
2021/10/30 02:44:56;;;;;;;194.65;78.78;;;9.30;84.60;;;;;;5057019;28;20121;-37
2021/10/30 02:47:22;;;;;;;157.30;71.70;;;9.30;84.30;;;;;;5056563;28;20052;-40
2021/10/30 02:49:48;;;;;;;167.55;74.53;;;9.30;84.30;;;;;;5056627;28;20025;-36
2021/10/30 02:52:13;;;;;;;194.00;84.68;;;9.30;84.30;;;;;;5056476;28;20040;-43
2021/10/30 02:54:39;;;;;;;182.88;87.82;;;9.30;84.20;;;;;;5056327;28;20036;-47
2021/10/30 02:57:05;;;;;;;207.63;94.30;;;9.30;84.10;;;;;;5056193;28;20075;-40
2021/10/30 02:59:31;;;;;;;186.80;86.80;;;9.30;84.10;;;;;;5056146;28;20032;-46
2021/10/30 03:01:56;;;;;;;202.63;86.82;;;9.30;84.20;;;;;;5056565;28;20029;-47
2021/10/30 03:04:22;;;;;;;170.65;79.82;;;9.30;84.20;;;;;;5056354;28;20036;-46
2021/10/30 03:06:48;;;;;;;180.50;79.18;;;9.30;84.40;;;;;;5054714;28;20124;-40
2021/10/30 03:09:13;;;;;;;144.85;66.63;;;9.30;84.30;;;;;;5056315;28;20033;-36
2021/10/30 03:11:40;;;;;;;106.95;52.42;;;9.30;84.20;;;;;;5055822;28;20357;-47
2021/10/30 03:14:05;;;;;;;82.68;36.88;;;9.30;83.90;;;;;;5056192;28;20029;-36
2021/10/30 03:16:31;;;;;;;61.60;30.17;;;9.30;83.50;;;;;;5056105;28;20029;-46
2021/10/30 03:18:57;;;;;;;59.58;29.83;;;9.30;83.20;;;;;;5056410;28;20345;-46
2021/10/30 03:21:23;;;;;;;54.92;26.13;;;9.30;83.20;;;;;;5055799;28;20033;-46
2021/10/30 03:23:49;;;;;;;42.85;23.48;;;9.30;83.50;;;;;;5055932;28;20120;-35
2021/10/30 03:26:14;;;;;;;47.30;23.02;;;9.30;83.60;;;;;;5055831;28;20082;-39
2021/10/30 03:28:40;;;;;;;39.72;20.30;;;9.30;83.70;;;;;;5055720;28;20036;-39
2021/10/30 03:31:06;;;;;;;37.33;20.27;;;9.30;83.50;;;;;;5056115;28;20370;-36
2021/10/30 03:33:31;;;;;;;35.42;18.98;;;9.30;83.40;;;;;;5055482;28;20446;-47
2021/10/30 03:35:57;;;;;;;36.70;19.58;;;9.30;83.30;;;;;;5055875;28;20081;-48
2021/10/30 03:38:23;;;;;;;36.67;19.50;;;9.30;83.40;;;;;;5055695;28;20033;-35
2021/10/30 03:40:49;;;;;;;39.72;19.63;;;9.30;83.40;;;;;;5056245;28;20024;-46
2021/10/30 03:43:16;;;;;;;34.08;17.70;;;9.30;83.50;;;;;;5055548;28;20025;-46
2021/10/30 03:45:41;;;;;;;55.10;36.95;;;9.20;83.50;;;;;;5054988;28;20436;-46
2021/10/30 03:48:10;;;;;;;63.10;44.25;;;9.30;83.40;;;;;;5055275;28;20025;-46
2021/10/30 03:50:37;;;;;;;47.72;30.30;;;9.20;83.30;;;;;;5056023;28;20037;-47
2021/10/30 03:53:04;;;;;;;42.92;25.38;;;9.30;83.40;;;;;;5055665;28;20340;-40
2021/10/30 03:55:30;;;;;;;41.20;23.58;;;9.20;83.20;;;;;;5055505;28;20041;-46
2021/10/30 03:57:56;;;;;;;50.92;23.98;;;9.20;83.10;;;;;;5055363;28;20028;-46
2021/10/30 04:00:22;;;;;;;42.22;21.30;;;9.20;83.00;;;;;;5055887;28;20033;-46
2021/10/30 04:02:48;;;;;;;39.53;21.27;;;9.20;83.00;;;;;;5055541;28;20025;-35
2021/10/30 04:05:14;;;;;;;42.25;22.95;;;9.20;83.00;;;;;;5055896;28;20021;-47
2021/10/30 04:07:39;;;;;;;47.28;23.42;;;9.10;83.10;;;;;;5055381;28;20031;-40
2021/10/30 04:10:05;;;;;;;49.15;25.23;;;9.10;83.30;;;;;;5055738;28;20036;-39
2021/10/30 04:12:31;;;;;;;42.10;23.30;;;9.10;83.30;;;;;;5055335;28;20033;-41
2021/10/30 04:14:57;;;;;;;50.15;24.63;;;9.10;83.60;;;;;;5055885;28;20033;-46
2021/10/30 04:17:23;;;;;;;39.97;20.58;;;9.10;83.70;;;;;;5055367;28;20387;-38
2021/10/30 04:19:48;;;;;;;44.20;21.88;;;9.10;83.70;;;;;;5055641;28;20100;-39
2021/10/30 04:22:14;;;;;;;38.10;19.10;;;9.10;83.80;;;;;;5055606;28;20394;-47
2021/10/30 04:24:40;;;;;;;43.85;20.88;;;9.10;83.50;;;;;;5055256;28;20025;-37
2021/10/30 04:27:05;;;;;;;41.38;20.65;;;9.10;83.40;;;;;;5055013;28;20033;-46
2021/10/30 04:29:31;;;;;;;45.00;21.27;;;9.10;83.40;;;;;;5055184;28;20033;-36
2021/10/30 04:31:59;;;;;;;50.53;21.67;;;9.10;83.50;;;;;;5055177;28;20029;-37
2021/10/30 04:34:40;;;;;;;44.72;21.30;;;9.10;83.20;;;;;;5055121;28;20021;-38
2021/10/30 04:37:13;;;;;;;49.90;23.13;;;9.00;83.10;;;;;;5055122;28;20029;-46
2021/10/30 04:39:39;;;;;;;42.30;20.65;;;9.00;83.10;;;;;;5055263;28;20032;-41
2021/10/30 04:42:05;;;;;;;42.95;20.50;;;9.00;83.20;;;;;;5055086;28;20033;-46
2021/10/30 04:44:31;;;;;;;46.20;22.92;;;9.00;83.00;;;;;;5055061;28;20032;-47
2021/10/30 04:46:57;;;;;;;49.00;20.30;;;8.90;83.00;;;;;;5054762;28;20104;-47
2021/10/30 04:49:22;;;;;;;48.00;20.90;;;8.90;83.10;;;;;;5056711;28;20362;-47
2021/10/30 04:51:48;;;;;;;53.97;22.55;;;8.90;83.30;;;;;;5058870;28;20044;-40
2021/10/30 04:54:14;;;;;;;51.58;24.75;;;8.90;83.30;;;;;;5058759;28;20036;-47
2021/10/30 04:56:39;;;;;;;47.33;22.92;;;8.90;83.40;;;;;;5058352;28;20033;-40
2021/10/30 04:59:05;;;;;;;58.40;27.70;;;8.90;83.60;;;;;;5059042;28;20113;-47
2021/10/30 05:01:31;;;;;;;46.33;21.70;;;8.90;83.80;;;;;;5058208;28;20037;-47
2021/10/30 05:03:56;;;;;;;50.55;22.60;;;8.90;84.10;;;;;;5058654;28;20021;-37
2021/10/30 05:06:22;;;;;;;46.78;21.25;;;8.90;84.10;;;;;;5058228;28;20041;-40
2021/10/30 05:08:47;;;;;;;59.78;28.13;;;8.90;84.00;;;;;;5058196;28;20052;-48
2021/10/30 05:11:13;;;;;;;50.42;24.30;;;8.90;84.10;;;;;;5058496;28;20387;-47
2021/10/30 05:13:38;;;;;;;58.08;30.15;;;8.90;83.80;;;;;;5057683;28;20060;-36
2021/10/30 05:16:04;;;;;;;55.38;31.25;;;9.00;83.70;;;;;;5058073;28;20079;-47
2021/10/30 05:18:30;;;;;;;56.83;28.38;;;9.00;83.60;;;;;;5057971;28;20067;-34
2021/10/30 05:20:56;;;;;;;60.85;23.60;;;9.00;83.40;;;;;;5058383;28;20501;-41
2021/10/30 05:23:22;;;;;;;59.80;26.55;;;8.90;83.20;;;;;;5058348;28;20104;-40
2021/10/30 05:25:48;;;;;;;57.42;27.48;;;8.90;83.30;;;;;;5058460;28;20424;-48
2021/10/30 05:28:20;;;;;;;70.93;33.03;;;8.90;83.50;;;;;;5057982;28;20045;-38
2021/10/30 05:30:50;;;;;;;67.35;30.42;;;8.80;83.60;;;;;;5058397;28;20112;-48
2021/10/30 05:33:16;;;;;;;56.67;29.67;;;8.80;83.70;;;;;;5057936;28;20052;-41
2021/10/30 05:35:42;;;;;;;69.30;30.55;;;8.80;84.00;;;;;;5058288;28;20318;-40
2021/10/30 05:38:08;;;;;;;66.57;31.55;;;8.80;84.30;;;;;;5057630;28;20033;-41
2021/10/30 05:40:34;;;;;;;87.75;30.10;;;8.80;84.60;;;;;;5057595;28;20106;-42
2021/10/30 05:43:00;;;;;;;64.18;27.65;;;8.80;84.40;;;;;;5057301;28;20048;-44
2021/10/30 05:45:26;;;;;;;67.15;30.48;;;8.90;85.30;;;;;;5058019;28;20029;-41
2021/10/30 05:47:52;;;;;;;63.40;29.33;;;8.90;84.60;;;;;;5053399;28;20044;-40
2021/10/30 05:50:18;;;;;;;54.58;22.88;;;8.90;84.60;;;;;;5037718;28;20025;-32
2021/10/30 05:52:43;;;;;;;55.40;24.00;;;8.90;84.40;;;;;;5037461;28;20111;-39
2021/10/30 05:55:09;;;;;;;61.70;23.77;;;8.90;84.50;;;;;;5037475;28;20441;-39
2021/10/30 05:57:35;;;;;;;58.22;24.30;;;8.90;84.40;;;;;;5037326;28;20102;-41
2021/10/30 06:00:01;;;;;;;70.70;23.27;;;9.00;84.30;;;;;;5037501;28;20418;-48
2021/10/30 06:02:26;;;;;;;55.95;23.40;;;9.00;84.20;;;;;;5037155;28;20030;-41
2021/10/30 06:04:54;;;;;;;57.88;26.70;;;8.90;84.20;;;;;;5037442;28;20044;-39
2021/10/30 06:07:20;;;;;;;54.95;23.60;;;8.90;84.40;;;;;;5037437;28;20041;-40
2021/10/30 06:09:45;;;;;;;57.17;24.52;;;9.00;84.50;;;;;;5037153;28;20034;-40
2021/10/30 06:12:11;;;;;;;56.13;26.92;;;9.00;84.30;;;;;;5036988;28;20033;-42
2021/10/30 06:14:37;;;;;;;69.18;27.15;;;9.00;84.00;;;;;;5037179;28;20041;-32
2021/10/30 06:17:03;;;;;;;69.28;29.33;;;9.00;83.80;;;;;;5037103;28;20041;-40
2021/10/30 06:19:28;;;;;;;83.07;33.13;;;9.00;83.50;;;;;;5036745;28;20296;-41
2021/10/30 06:21:54;;;;;;;92.60;34.17;;;9.00;83.50;;;;;;5036699;28;20046;-41
2021/10/30 06:24:20;;;;;;;101.97;35.53;;;9.00;83.60;;;;;;5036578;28;20321;-41
2021/10/30 06:26:46;;;;;;;106.55;43.10;;;9.00;83.70;;;;;;5036209;28;20040;-34
2021/10/30 06:29:11;;;;;;;95.95;41.88;;;9.00;83.90;;;;;;5036718;28;20083;-41
2021/10/30 06:31:37;;;;;;;117.70;44.40;;;9.00;83.70;;;;;;5036432;28;20279;-33
2021/10/30 06:34:03;;;;;;;116.45;44.25;;;9.00;83.60;;;;;;5036630;28;20037;-42
2021/10/30 06:36:29;;;;;;;149.55;51.13;;;9.00;83.60;;;;;;5036634;28;20159;-41
2021/10/30 06:38:54;;;;;;;191.35;62.35;;;9.00;83.80;;;;;;5036540;28;20048;-41
2021/10/30 06:41:21;;;;;;;163.95;58.08;;;9.00;83.70;;;;;;5036720;28;20037;-41
2021/10/30 06:43:46;;;;;;;160.13;54.40;;;9.10;84.00;;;;;;5036583;28;20029;-41
2021/10/30 06:46:12;;;;;;;154.60;51.80;;;9.10;84.00;;;;;;5037354;28;20418;-33
2021/10/30 06:48:38;;;;;;;163.10;55.53;;;9.10;84.40;;;;;;5051406;28;20040;-33
2021/10/30 06:51:05;;;;;;;173.02;55.13;;;9.10;83.80;;;;;;5056370;28;20037;-34
2021/10/30 06:53:31;;;;;;;180.15;55.53;;;9.10;83.80;;;;;;5055967;28;20364;-33
2021/10/30 06:55:58;;;;;;;166.35;52.65;;;9.20;84.00;;;;;;5051816;28;20428;-32
2021/10/30 06:58:27;;;;;;;200.80;57.72;;;9.20;83.70;;;;;;5035580;28;20061;-40
2021/10/30 07:00:52;;;;;;;175.93;57.05;;;9.20;83.70;;;;;;5035606;28;20065;-40
2021/10/30 07:03:18;;;;;;;203.77;60.38;;;9.20;83.80;;;;;;5035566;28;20060;-34
2021/10/30 07:05:44;;;;;;;168.60;52.38;;;9.20;84.10;;;;;;5036369;28;20029;-40
2021/10/30 07:08:09;;;;;;;194.15;59.58;;;9.30;84.20;;;;;;5034500;28;20033;-34
2021/10/30 07:10:35;;;;;;;229.90;66.00;;;9.30;84.20;;;;;;5036161;28;20087;-33
2021/10/30 07:13:01;;;;;;;212.52;65.05;;;9.40;84.10;;;;;;5035039;28;20039;-41
2021/10/30 07:15:26;;;;;;;210.95;68.43;;;9.50;84.10;;;;;;5036299;28;20137;-41
2021/10/30 07:17:52;;;;;;;199.15;65.78;;;9.50;83.90;;;;;;5035895;28;20041;-41
2021/10/30 07:20:17;;;;;;;238.10;74.07;;;9.50;83.60;;;;;;5036222;28;20033;-33
2021/10/30 07:22:45;;;;;;;212.25;69.50;;;9.60;83.50;;;;;;5035481;28;20112;-34
2021/10/30 07:25:12;;;;;;;227.93;70.28;;;9.70;83.50;;;;;;5036346;28;20363;-33
2021/10/30 07:27:38;;;;;;;187.70;61.03;;;9.70;83.30;;;;;;5035552;28;20040;-32
2021/10/30 07:30:08;;;;;;;161.02;53.47;;;9.70;83.10;;;;;;5039510;28;20038;-33
2021/10/30 07:32:34;;;;;;;140.23;50.42;;;9.80;83.10;;;;;;5046274;28;20087;-40
2021/10/30 07:34:59;;;;;;;135.20;49.47;;;9.80;83.10;;;;;;5035241;28;20046;-39
2021/10/30 07:37:25;;;;;;;151.15;51.13;;;9.90;82.70;;;;;;5033869;28;20033;-33
2021/10/30 07:39:51;;;;;;;166.30;55.88;;;9.90;82.60;;;;;;5035806;28;20371;-33
2021/10/30 07:42:18;;;;;;;271.50;106.65;;;9.90;82.20;;;;;;5034107;28;20075;-34
2021/10/30 07:44:44;;;;;;;217.35;78.97;;;10.00;82.40;;;;;;5035937;28;20025;-33
2021/10/30 07:47:11;;;;;;;295.35;123.20;;;10.00;82.40;;;;;;5035308;28;20471;-41
2021/10/30 07:49:37;;;;;;;201.77;68.80;;;10.00;82.30;;;;;;5034806;28;20094;-41
2021/10/30 07:52:05;;;;;;;205.18;64.90;;;10.00;82.20;;;;;;5035350;28;20419;-40
2021/10/30 07:54:33;;;;;;;173.85;59.53;;;10.10;82.00;;;;;;5034318;28;20057;-33
2021/10/30 07:57:00;;;;;;;179.07;62.85;;;10.10;82.00;;;;;;5035382;28;20034;-40
2021/10/30 07:59:25;;;;;;;272.70;122.47;;;10.10;81.80;;;;;;5035520;28;20044;-34
2021/10/30 08:01:52;;;;;;;225.45;88.75;;;10.10;82.00;;;;;;5035400;28;20030;-41
2021/10/30 08:04:18;;;;;;;229.18;84.35;;;10.20;82.00;;;;;;5035537;28;20093;-33
2021/10/30 08:06:44;;;;;;;214.45;80.97;;;10.20;81.90;;;;;;5035453;28;20046;-41
2021/10/30 08:09:10;;;;;;;213.55;74.78;;;10.20;81.80;;;;;;5035422;28;20029;-32
2021/10/30 08:11:35;;;;;;;267.05;82.60;;;10.30;81.40;;;;;;5033938;28;20370;-41
2021/10/30 08:14:03;;;;;;;287.00;84.75;;;10.40;80.90;;;;;;5035412;28;20030;-32
2021/10/30 08:16:29;;;;;;;277.27;81.65;;;10.40;80.20;;;;;;5035097;28;20033;-41
2021/10/30 08:18:56;;;;;;;252.05;82.22;;;10.40;79.90;;;;;;5035224;28;20095;-40
2021/10/30 08:21:22;;;;;;;290.83;89.65;;;10.40;79.90;;;;;;5035327;28;20037;-32
2021/10/30 08:23:49;;;;;;;302.08;94.30;;;10.40;79.80;;;;;;5037623;28;20030;-40
2021/10/30 08:26:15;;;;;;;211.95;68.72;;;10.40;79.90;;;;;;5038736;28;20120;-40
2021/10/30 08:28:41;;;;;;;223.50;72.90;;;10.40;80.10;;;;;;5038886;28;20053;-33
2021/10/30 08:31:07;;;;;;;192.80;68.65;;;10.50;80.30;;;;;;5038909;28;20067;-33
2021/10/30 08:33:33;;;;;;;199.43;71.90;;;10.50;80.30;;;;;;5038634;28;20052;-33
2021/10/30 08:35:59;;;;;;;220.25;74.80;;;10.50;80.10;;;;;;5038361;28;20057;-33
2021/10/30 08:38:25;;;;;;;204.23;70.78;;;10.60;80.00;;;;;;5038658;28;20044;-33
2021/10/30 08:40:52;;;;;;;196.95;74.38;;;10.60;79.70;;;;;;5038847;28;20073;-40
2021/10/30 08:43:24;;;;;;;183.13;65.60;;;10.70;79.80;;;;;;5037414;28;20063;-41
2021/10/30 08:45:50;;;;;;;223.52;71.20;;;10.70;79.60;;;;;;5038625;28;20056;-41
2021/10/30 08:48:21;;;;;;;201.40;71.70;;;10.70;79.50;;;;;;5038311;28;20029;-41
2021/10/30 08:50:49;;;;;;;185.65;68.03;;;10.80;79.30;;;;;;5039307;28;20026;-41
2021/10/30 08:53:15;;;;;;;196.82;72.03;;;10.80;79.00;;;;;;5038681;28;20037;-33
2021/10/30 08:55:40;;;;;;;191.82;71.85;;;10.90;78.90;;;;;;5038425;28;20045;-32
2021/10/30 08:58:11;;;;;;;191.38;74.45;;;10.90;78.80;;;;;;5038791;28;20071;-39
2021/10/30 09:00:40;;;;;;;190.25;77.95;;;10.90;78.60;;;;;;5039010;28;20104;-34
2021/10/30 09:03:08;;;;;;;194.02;73.38;;;10.90;78.70;;;;;;5038587;28;20041;-41
2021/10/30 09:05:34;;;;;;;186.20;73.80;;;11.00;78.60;;;;;;5038529;28;20385;-33
2021/10/30 09:08:03;;;;;;;228.40;92.95;;;11.10;78.00;;;;;;5036861;28;20107;-41
2021/10/30 09:10:35;;;;;;;213.23;94.18;;;11.10;77.90;;;;;;5058277;28;20029;-40
2021/10/30 09:13:03;;;;;;;173.63;71.63;;;11.10;77.80;;;;;;5058159;28;20037;-33
2021/10/30 09:15:42;;;;;;;173.73;71.55;;;11.20;77.50;;;;;;5058632;28;20335;-33
2021/10/30 09:18:33;;;;;;;147.07;61.50;;;11.20;77.10;;;;;;5058088;28;20573;-33
2021/10/30 09:21:04;;;;;;;150.65;62.60;;;11.20;77.20;;;;;;5056747;28;20029;-41
2021/10/30 09:23:35;;;;;;;100.80;45.75;;;11.20;77.30;;;;;;5057608;28;20321;-33
2021/10/30 09:26:03;;;;;;;95.57;42.08;;;11.30;77.50;;;;;;5057849;28;20033;-33
2021/10/30 09:28:36;;;;;;;91.90;42.03;;;11.30;77.40;;;;;;5057529;28;20427;-33
2021/10/30 09:31:11;;;;;;;84.75;40.65;;;11.30;77.20;;;;;;5057758;28;20029;-40
2021/10/30 09:33:50;;;;;;;92.70;43.75;;;11.30;77.20;;;;;;5057417;28;20436;-33
2021/10/30 09:36:16;;;;;;;84.28;39.78;;;11.40;77.00;;;;;;5057284;28;20065;-43
2021/10/30 09:38:43;;;;;;;83.75;40.17;;;11.40;77.00;;;;;;5057494;28;20048;-33
2021/10/30 09:41:40;;;;;;;83.68;37.20;;;11.40;76.80;;;;;;5057488;28;20111;-34
2021/10/30 09:44:09;;;;;;;75.32;37.65;;;11.40;76.70;;;;;;5056880;28;20107;-34
2021/10/30 09:46:45;;;;;;;79.28;41.30;;;11.40;76.90;;;;;;5057003;28;20021;-33
2021/10/30 09:49:17;;;;;;;103.65;57.03;;;11.40;77.00;;;;;;5057454;28;20053;-41
2021/10/30 09:52:06;;;;;;;76.00;34.80;;;11.50;76.80;;;;;;5057040;28;20104;-33
2021/10/30 09:54:38;;;;;;;66.13;32.30;;;11.50;76.80;;;;;;5057000;28;20036;-40
2021/10/30 09:57:07;;;;;;;64.07;30.88;;;11.50;76.80;;;;;;5057692;28;20033;-41
2021/10/30 09:59:36;;;;;;;64.05;33.42;;;11.60;76.80;;;;;;5057334;28;20037;-33
2021/10/30 10:02:03;;;;;;;63.85;32.90;;;11.70;76.40;;;;;;5057747;28;20103;-42
2021/10/30 10:04:30;;;;;;;74.78;33.58;;;11.70;76.10;;;;;;5057542;28;20029;-34
2021/10/30 10:06:57;;;;;;;81.32;35.60;;;11.70;75.80;;;;;;5056925;28;20340;-41
2021/10/30 10:09:23;;;;;;;63.75;31.95;;;11.70;75.70;;;;;;5057263;28;20057;-41
2021/10/30 10:11:50;;;;;;;65.72;35.35;;;11.70;75.50;;;;;;5056889;28;20068;-34
2021/10/30 10:14:17;;;;;;;68.10;31.73;;;11.80;75.30;;;;;;5057419;28;20083;-34
2021/10/30 10:16:45;;;;;;;58.42;30.17;;;11.70;75.30;;;;;;5056875;28;20059;-42
2021/10/30 10:19:11;;;;;;;59.38;29.77;;;11.70;75.20;;;;;;5057475;28;20282;-33
2021/10/30 10:21:40;;;;;;;52.20;28.42;;;11.70;75.30;;;;;;5056649;28;20056;-41
2021/10/30 10:24:10;;;;;;;53.15;29.20;;;11.70;75.30;;;;;;5056393;28;20040;-41
2021/10/30 10:26:45;;;;;;;55.17;30.38;;;11.80;75.30;;;;;;5056288;28;20025;-41
2021/10/30 10:29:12;;;;;;;56.10;30.83;;;11.80;75.20;;;;;;5057063;28;20036;-33
2021/10/30 10:31:51;;;;;;;54.03;29.23;;;11.90;75.00;;;;;;5056260;28;20085;-33
2021/10/30 10:34:24;;;;;;;45.05;25.95;;;11.90;74.70;;;;;;5056948;28;20033;-41
2021/10/30 10:37:12;;;;;;;50.08;27.42;;;11.90;74.80;;;;;;5056348;28;20452;-34
2021/10/30 10:39:53;;;;;;;46.10;25.20;;;12.00;74.60;;;;;;5056723;28;20029;-40
2021/10/30 10:42:34;;;;;;;65.75;33.85;;;12.00;74.60;;;;;;5056239;28;20033;-33
2021/10/30 10:45:01;;;;;;;;;;;12.00;74.40;;;;;;5057405;28;20299;-40
2021/10/30 10:47:36;;;;;;;49.60;27.48;;;12.10;74.70;;;;;;5055497;28;19912;-33
2021/10/30 10:50:28;;;;;;;47.55;27.67;;;12.10;74.10;;;;;;5056838;28;20127;-33
2021/10/30 10:53:15;;;;;;;45.70;24.90;;;12.00;73.70;;;;;;5056684;28;20123;-33
2021/10/30 10:55:47;;;;;;;50.65;26.63;;;12.00;73.60;;;;;;5056241;28;20041;-33
2021/10/30 10:58:14;;;;;;;48.33;25.10;;;12.00;73.40;;;;;;5056410;28;20094;-40
2021/10/30 11:01:04;;;;;;;48.35;25.48;;;11.90;73.30;;;;;;5056518;28;20036;-33
2021/10/30 11:03:30;;;;;;;40.42;23.98;;;11.90;73.10;;;;;;5055782;28;20033;-33
2021/10/30 11:05:58;;;;;;;49.20;26.95;;;11.80;73.20;;;;;;5056482;28;20322;-34
2021/10/30 11:08:34;;;;;;;46.63;25.48;;;11.70;73.10;;;;;;5055922;28;20025;-35
2021/10/30 11:11:23;;;;;;;53.13;28.92;;;11.70;73.20;;;;;;5056269;28;20041;-33
2021/10/30 11:14:03;;;;;;;42.03;25.13;;;11.60;73.20;;;;;;5056111;28;20483;-33
2021/10/30 11:16:41;;;;;;;49.90;25.23;;;11.60;73.30;;;;;;5054518;28;20036;-33
2021/10/30 11:19:19;;;;;;;42.70;25.23;;;11.50;73.30;;;;;;5056216;28;20025;-33
2021/10/30 11:21:49;;;;;;;44.40;25.90;;;11.50;73.50;;;;;;5055790;28;20041;-33
2021/10/30 11:24:24;;;;;;;49.17;29.40;;;11.50;73.60;;;;;;5056225;28;20032;-33
2021/10/30 11:27:01;;;;;;;45.15;28.02;;;11.50;73.50;;;;;;5055626;28;20112;-35
2021/10/30 11:29:27;;;;;;;48.40;28.83;;;11.40;73.50;;;;;;5055810;28;20029;-33
2021/10/30 11:31:55;;;;;;;43.75;25.20;;;11.30;73.60;;;;;;5055703;28;20037;-33
2021/10/30 11:34:21;;;;;;;48.63;30.42;;;11.30;73.60;;;;;;5055814;28;20032;-41
2021/10/30 11:36:47;;;;;;;51.28;29.80;;;11.30;73.70;;;;;;5055266;28;20033;-34
2021/10/30 11:39:14;;;;;;;43.60;26.30;;;11.20;73.90;;;;;;5055751;28;20028;-42
2021/10/30 11:41:44;;;;;;;44.88;26.08;;;11.20;74.00;;;;;;5055081;28;20418;-34
2021/10/30 11:44:12;;;;;;;50.55;27.77;;;11.20;74.00;;;;;;5041863;28;20026;-34
2021/10/30 11:46:55;;;;;;;46.30;25.98;;;11.20;73.90;;;;;;5035033;28;20121;-34
2021/10/30 11:49:27;;;;;;;65.97;35.72;;;11.20;73.90;;;;;;5035276;28;20409;-33
2021/10/30 11:52:07;;;;;;;49.10;25.98;;;11.10;73.90;;;;;;5035239;28;20037;-34
2021/10/30 11:54:35;;;;;;;50.00;29.25;;;11.10;73.90;;;;;;5035218;28;20049;-40
2021/10/30 11:57:11;;;;;;;63.83;38.13;;;11.10;74.00;;;;;;5035245;28;20091;-41
2021/10/30 11:59:38;;;;;;;51.30;27.98;;;11.10;74.00;;;;;;5035057;28;20033;-33
2021/10/30 12:02:04;;;;;;;55.65;29.65;;;11.10;74.20;;;;;;5033743;28;20307;-33
2021/10/30 12:04:39;;;;;;;79.53;50.13;;;11.00;74.70;;;;;;5035290;28;20074;-32
2021/10/30 12:07:05;;;;;;;54.00;31.33;;;11.00;74.10;;;;;;5034899;28;20602;-34
2021/10/30 12:09:42;;;;;;;63.53;31.23;;;11.00;74.10;;;;;;5035151;28;20049;-41
2021/10/30 12:12:10;;;;;;;48.65;27.15;;;11.00;74.00;;;;;;5035044;28;20033;-42
2021/10/30 12:14:38;;;;;;;45.65;25.60;;;11.00;74.20;;;;;;5035156;28;20029;-41
2021/10/30 12:17:12;;;;;;;51.35;25.88;;;10.90;74.20;;;;;;5035044;28;20030;-41
2021/10/30 12:19:39;;;;;;;39.88;23.98;;;10.90;74.20;;;;;;5035228;28;20033;-40
2021/10/30 12:22:18;;;;;;;51.97;29.98;;;10.90;74.30;;;;;;5034802;28;20076;-41
2021/10/30 12:24:44;;;;;;;53.13;29.38;;;10.90;74.40;;;;;;5035086;28;20088;-41
2021/10/30 12:27:10;;;;;;;46.10;25.52;;;10.80;74.40;;;;;;5034905;28;20104;-41
2021/10/30 12:29:45;;;;;;;42.05;23.35;;;10.80;74.50;;;;;;5035211;28;20302;-33
2021/10/30 12:32:13;;;;;;;59.00;32.50;;;10.80;74.70;;;;;;5035124;28;20037;-34
2021/10/30 12:34:43;;;;;;;41.40;25.38;;;10.70;74.90;;;;;;5035282;28;20029;-34